Time;durP1;ratioP1;P1;durP2;ratioP2;P2;SDS_P1;SDS_P2;PMS_P1;PMS_P2;Temp;Humidity;BMP_temperature;BMP_pressure;BME280_temperature;BME280_humidity;BME280_pressure;Samples;Min_cycle;Max_cycle;Signal;HPM_P1;HPM_P2
2020/12/27 00:01:45;;;;;;;1.57;1.40;;;9.80;96.80;;;10.41;51.71;100409.53;4879458;28;115817;-59
2020/12/27 00:04:11;;;;;;;3.37;1.47;;;10.00;97.60;;;10.46;51.32;100400.59;4909927;28;109837;-58
2020/12/27 00:06:37;;;;;;;4.87;2.00;;;10.00;96.70;;;10.57;47.04;100398.41;4877200;28;105970;-58
2020/12/27 00:09:03;;;;;;;4.13;2.10;;;10.30;95.60;;;10.54;46.84;100387.94;4878342;28;100188;-59
2020/12/27 00:11:29;;;;;;;3.13;1.93;;;10.20;95.60;;;10.55;47.56;100376.47;4885527;28;98590;-59
2020/12/27 00:13:55;;;;;;;2.47;1.83;;;10.10;96.30;;;10.45;51.27;100376.00;4892603;28;98189;-59
2020/12/27 00:16:27;;;;;;;1.70;1.40;;;10.00;96.60;;;10.56;47.33;100370.28;4871572;28;100061;-58
2020/12/27 00:18:53;;;;;;;1.27;1.17;;;10.20;95.80;;;10.58;47.47;100364.03;4894734;28;98191;-59
2020/12/27 00:21:19;;;;;;;2.37;1.77;;;10.20;95.80;;;10.75;48.24;100366.00;4892458;28;98053;-57
2020/12/27 00:23:46;;;;;;;3.10;1.80;;;10.30;96.20;;;10.62;46.50;100367.41;4892517;28;98707;-58
2020/12/27 00:26:13;;;;;;;2.00;1.70;;;10.20;95.50;;;10.45;47.03;100356.69;4894889;28;97644;-57
2020/12/27 00:28:40;;;;;;;2.80;1.50;;;10.10;95.50;;;10.52;51.47;100351.09;4894613;28;99775;-58
2020/12/27 00:31:06;;;;;;;2.40;1.40;;;10.00;96.60;;;10.74;51.40;100332.63;4871619;28;97503;-59
2020/12/27 00:33:33;;;;;;;2.60;1.63;;;10.20;97.80;;;10.72;46.17;100329.19;4896398;28;116845;-59
2020/12/27 00:36:00;;;;;;;1.23;1.03;;;10.40;95.10;;;10.80;47.12;100316.53;4867020;28;98986;-58
2020/12/27 00:38:26;;;;;;;1.97;1.33;;;10.50;96.20;;;10.64;46.70;100304.91;4907515;28;98745;-59
2020/12/27 00:40:53;;;;;;;1.40;1.07;;;10.40;95.20;;;10.84;47.40;100291.72;4878549;28;98520;-59
2020/12/27 00:43:19;;;;;;;1.30;1.20;;;10.50;95.80;;;10.79;48.34;100288.44;4870030;28;98558;-60
2020/12/27 00:45:46;;;;;;;2.33;1.53;;;10.40;95.60;;;10.94;47.68;100298.34;4877123;28;99023;-59
2020/12/27 00:48:11;;;;;;;2.87;1.30;;;10.50;95.20;;;11.08;46.16;100284.53;4889667;28;99432;-58
2020/12/27 00:50:37;;;;;;;1.90;1.43;;;10.70;95.00;;;10.90;45.60;100280.91;4892790;28;98256;-60
2020/12/27 00:53:03;;;;;;;3.93;1.80;;;10.60;94.60;;;10.76;46.16;100293.84;4885265;28;97366;-59
2020/12/27 00:55:29;;;;;;;3.13;1.80;;;10.40;94.70;;;10.72;46.78;100287.00;4897147;28;98320;-59
2020/12/27 00:57:55;;;;;;;2.30;1.50;;;10.30;95.20;;;10.92;48.95;100276.44;4900516;28;112838;-60
2020/12/27 01:00:20;;;;;;;1.83;1.60;;;10.50;96.20;;;11.06;49.44;100269.69;4901357;28;111844;-59
2020/12/27 01:02:46;;;;;;;2.23;1.60;;;10.60;96.70;;;11.07;47.65;100261.72;4904592;28;97579;-59
2020/12/27 01:05:12;;;;;;;2.27;1.10;;;10.70;96.20;;;11.28;50.00;100246.69;4911278;28;118703;-59
2020/12/27 01:07:38;;;;;;;1.60;1.07;;;10.80;97.00;;;11.16;46.76;100249.91;4869770;28;97911;-60
2020/12/27 01:10:04;;;;;;;1.40;1.00;;;10.80;95.30;;;11.44;49.00;100225.75;4900962;28;96957;-59
2020/12/27 01:12:30;;;;;;;1.90;1.10;;;11.00;96.20;;;11.59;45.90;100228.53;4889858;28;101353;-60
2020/12/27 01:14:56;;;;;;;4.63;1.57;;;11.30;94.20;;;11.58;47.72;100205.69;4895837;28;99196;-59
2020/12/27 01:17:25;;;;;;;1.07;0.97;;;11.20;94.50;;;11.79;48.86;100210.91;4894137;28;99487;-59
2020/12/27 01:19:51;;;;;;;2.20;1.40;;;11.30;96.50;;;11.60;44.55;100197.69;4902030;28;103074;-59
2020/12/27 01:22:16;;;;;;;1.37;0.87;;;11.30;93.30;;;11.72;45.54;100193.63;4893645;28;98714;-60
2020/12/27 01:24:42;;;;;;;1.17;0.90;;;11.30;94.30;;;11.93;47.72;100184.69;4902546;28;110976;-60
2020/12/27 01:27:08;;;;;;;2.13;1.40;;;11.50;95.60;;;11.92;46.23;100180.34;4896359;28;98450;-59
2020/12/27 01:29:34;;;;;;;1.70;1.00;;;11.50;94.10;;;12.09;46.25;100185.66;4888782;28;97153;-60
2020/12/27 01:32:01;;;;;;;0.90;0.70;;;11.70;94.60;;;11.91;46.33;100181.28;4874673;28;117184;-60
2020/12/27 01:34:30;;;;;;;1.60;0.87;;;11.50;95.00;;;11.79;45.40;100168.63;4888542;28;99769;-60
2020/12/27 01:36:56;;;;;;;1.37;0.93;;;11.30;93.60;;;11.78;48.86;100165.09;4892846;28;98255;-60
2020/12/27 01:39:22;;;;;;;0.60;0.50;;;11.20;95.30;;;11.98;48.80;100164.16;4888851;28;98092;-60
2020/12/27 01:41:51;;;;;;;1.17;0.73;;;11.40;96.00;;;11.78;44.79;100143.13;4894925;28;97311;-58
2020/12/27 01:44:16;;;;;;;0.70;0.70;;;11.30;94.20;;;12.07;48.97;100126.72;4889495;28;97652;-59
2020/12/27 01:46:47;;;;;;;1.77;1.10;;;11.50;96.90;;;11.95;45.35;100113.25;4909280;28;100131;-59
2020/12/27 01:49:13;;;;;;;1.47;0.80;;;11.40;93.90;;;12.28;45.82;100089.53;4872920;28;97296;-59
2020/12/27 01:51:40;;;;;;;0.87;0.60;;;11.80;94.70;;;12.26;45.60;100086.97;4890460;28;97163;-59
2020/12/27 01:54:07;;;;;;;1.00;0.90;;;11.80;93.70;;;12.07;44.00;100073.84;4868726;28;100256;-59
2020/12/27 01:56:42;;;;;;;1.30;1.00;;;11.70;92.60;;;12.14;43.91;100085.81;4883372;28;98730;-59
2020/12/27 01:59:21;;;;;;;1.73;1.00;;;11.70;93.40;;;11.81;42.84;100079.56;4876920;28;98655;-59
2020/12/27 02:01:47;;;;;;;1.40;1.10;;;11.40;92.40;;;11.98;44.40;100066.38;4891490;28;98985;-59
2020/12/27 02:04:13;;;;;;;1.60;0.83;;;11.50;94.20;;;11.92;44.85;100048.19;4879568;28;100861;-60
2020/12/27 02:06:42;;;;;;;0.77;0.63;;;11.40;93.50;;;12.26;44.21;100027.94;4880768;28;116693;-60
2020/12/27 02:09:11;;;;;;;0.70;0.70;;;11.90;93.00;;;12.03;44.31;100027.34;4898891;28;96981;-59
2020/12/27 02:11:36;;;;;;;2.07;1.10;;;11.60;93.20;;;11.80;44.32;100019.75;4881426;28;102188;-61
2020/12/27 02:14:02;;;;;;;1.37;0.90;;;11.30;93.20;;;11.47;45.00;100007.25;4896161;28;101183;-59
2020/12/27 02:16:31;;;;;;;2.13;0.83;;;10.90;93.20;;;11.78;45.90;99995.16;4873213;28;100155;-59
2020/12/27 02:19:01;;;;;;;1.33;1.10;;;11.20;95.20;;;11.47;44.46;99994.06;4890582;28;98684;-60
2020/12/27 02:21:29;;;;;;;1.10;1.00;;;11.00;93.90;;;11.22;44.73;99980.34;4887434;28;97394;-59
2020/12/27 02:24:04;;;;;;;1.00;0.90;;;10.70;93.80;;;11.13;45.48;99975.50;4894907;28;100198;-59
2020/12/27 02:26:30;;;;;;;1.17;1.07;;;10.60;94.30;;;11.03;48.78;99965.41;4875716;28;100120;-59
2020/12/27 02:28:57;;;;;;;1.27;0.90;;;10.40;95.10;;;11.10;50.17;99965.97;4892104;28;97582;-59
2020/12/27 02:31:28;;;;;;;1.50;0.60;;;10.50;96.00;;;11.13;47.18;99959.66;4888603;28;97646;-59
2020/12/27 02:33:56;;;;;;;1.20;0.80;;;10.60;96.50;;;11.05;45.56;99959.19;4894192;28;97711;-59
2020/12/27 02:36:22;;;;;;;2.10;0.97;;;10.50;93.80;;;11.25;50.34;99943.22;4886579;28;98289;-58
2020/12/27 02:38:48;;;;;;;1.37;0.70;;;10.70;95.50;;;11.09;50.20;99939.66;4890014;28;106164;-59
2020/12/27 02:41:20;;;;;;;3.17;0.70;;;10.50;94.60;;;10.96;47.88;99937.59;4887987;28;97834;-59
2020/12/27 02:43:46;;;;;;;0.70;0.70;;;10.40;94.50;;;10.79;45.64;99939.34;4891045;28;99087;-59
2020/12/27 02:46:25;;;;;;;1.53;0.90;;;10.30;94.40;;;10.84;44.93;99929.41;4890668;28;97637;-57
2020/12/27 02:48:52;;;;;;;2.00;0.90;;;10.30;93.90;;;10.99;50.61;99900.53;4908876;28;96857;-59
2020/12/27 02:51:22;;;;;;;1.13;0.53;;;10.40;95.60;;;11.17;48.38;99889.97;4895259;28;98545;-59
2020/12/27 02:53:50;;;;;;;0.80;0.50;;;10.70;94.80;;;11.44;46.49;99872.75;4870398;28;98774;-59
2020/12/27 02:56:21;;;;;;;0.73;0.70;;;11.00;94.70;;;11.06;44.27;99876.47;4895040;28;98207;-59
2020/12/27 02:58:47;;;;;;;0.63;0.60;;;10.70;93.10;;;11.41;49.50;99862.31;4872890;28;98535;-59
2020/12/27 03:01:13;;;;;;;1.30;0.60;;;10.90;95.10;;;11.40;43.77;99860.59;4880621;28;98265;-59
2020/12/27 03:03:40;;;;;;;0.87;0.50;;;11.00;93.30;;;11.86;48.73;99845.00;4875070;28;97775;-58
2020/12/27 03:06:06;;;;;;;0.80;0.60;;;11.30;96.30;;;11.71;44.65;99843.16;4907370;28;102033;-59
2020/12/27 03:08:32;;;;;;;1.10;0.40;;;11.30;93.00;;;11.97;43.08;99833.88;4885856;28;116699;-59
2020/12/27 03:10:58;;;;;;;0.97;0.67;;;11.70;92.20;;;12.07;44.55;99828.00;4892296;28;97733;-58
2020/12/27 03:13:24;;;;;;;0.60;0.40;;;11.70;94.10;;;12.35;44.35;99807.97;4886779;28;98434;-59
2020/12/27 03:15:54;;;;;;;0.50;0.43;;;12.00;93.10;;;12.12;46.51;99810.09;4869709;28;99551;-58
2020/12/27 03:18:21;;;;;;;1.03;0.60;;;11.70;93.10;;;12.21;42.61;99788.44;4867670;28;97560;-59
2020/12/27 03:20:48;;;;;;;0.40;0.40;;;11.80;92.40;;;12.03;44.90;99794.75;4894113;28;98654;-59
2020/12/27 03:23:15;;;;;;;0.47;0.43;;;11.60;92.30;;;12.08;46.09;99776.00;4887908;28;97624;-59
2020/12/27 03:25:45;;;;;;;0.40;0.40;;;11.60;92.80;;;12.41;44.08;99760.00;4893313;28;98327;-63
2020/12/27 03:28:11;;;;;;;0.63;0.40;;;11.90;94.10;;;12.34;47.70;99745.44;4897727;28;102413;-60
2020/12/27 03:30:37;;;;;;;0.40;0.40;;;11.80;93.70;;;12.39;43.42;99738.09;4896865;28;96820;-60
2020/12/27 03:33:04;;;;;;;0.50;0.50;;;11.90;91.90;;;12.80;41.66;99723.31;4886462;28;97910;-61
2020/12/27 03:35:30;;;;;;;0.50;0.50;;;12.50;92.50;;;12.60;41.00;99714.84;4895278;28;97550;-61
2020/12/27 03:37:56;;;;;;;1.07;0.50;;;12.30;90.40;;;12.16;41.32;99721.78;4894990;28;96880;-60
2020/12/27 03:40:21;;;;;;;1.13;0.70;;;11.80;90.70;;;12.09;42.38;99708.97;4889324;28;100357;-61
2020/12/27 03:42:47;;;;;;;0.53;0.30;;;11.60;91.60;;;12.07;47.15;99690.56;4894081;28;99019;-60
2020/12/27 03:45:13;;;;;;;1.73;0.60;;;11.50;94.40;;;12.24;47.53;99694.03;4890699;28;100183;-61
2020/12/27 03:47:40;;;;;;;1.07;0.50;;;11.70;94.50;;;12.08;45.17;99676.41;4896494;28;97612;-61
2020/12/27 03:50:06;;;;;;;1.30;0.40;;;11.60;92.30;;;12.11;43.86;99670.94;4872623;28;97017;-60
2020/12/27 03:52:32;;;;;;;1.30;0.40;;;11.60;93.30;;;12.26;46.73;99655.13;4976195;23;100060;-59
2020/12/27 03:54:58;;;;;;;0.63;0.50;;;11.70;94.70;;;12.10;45.27;99649.88;4886016;28;102702;-59
2020/12/27 03:57:24;;;;;;;0.73;0.60;;;11.70;93.10;;;12.17;42.57;99633.59;4896634;28;97193;-59
2020/12/27 03:59:50;;;;;;;0.80;0.40;;;11.80;92.60;;;12.40;46.65;99620.78;4864886;28;97348;-61
2020/12/27 04:02:16;;;;;;;0.50;0.50;;;12.00;93.60;;;12.43;48.31;99610.03;4882742;28;98346;-59
2020/12/27 04:04:42;;;;;;;1.10;0.60;;;12.00;95.00;;;12.37;44.23;99599.81;4853069;28;100376;-58
2020/12/27 04:07:08;;;;;;;0.40;0.30;;;12.00;92.40;;;12.41;46.59;99582.81;4874174;28;98154;-59
2020/12/27 04:09:34;;;;;;;0.80;0.40;;;11.90;94.60;;;12.58;46.63;99584.44;4877350;28;98934;-59
2020/12/27 04:12:00;;;;;;;0.87;0.60;;;12.10;94.10;;;12.27;43.42;99569.56;4859954;28;99449;-59
2020/12/27 04:14:26;;;;;;;0.30;0.30;;;11.90;92.20;;;12.15;42.65;99577.31;4868634;28;100268;-59
2020/12/27 04:16:52;;;;;;;0.33;0.30;;;11.80;91.50;;;12.15;47.20;99550.88;4864215;28;96884;-59
2020/12/27 04:19:18;;;;;;;1.43;0.30;;;11.60;93.10;;;11.81;43.34;99551.16;4880686;28;98391;-58
2020/12/27 04:21:46;;;;;;;0.67;0.40;;;11.30;92.00;;;11.98;43.11;99532.50;4857774;28;101062;-60
2020/12/27 04:24:12;;;;;;;0.50;0.40;;;11.50;93.30;;;12.21;46.51;99528.50;4875257;28;102896;-58
2020/12/27 04:26:38;;;;;;;1.57;0.43;;;11.70;95.10;;;12.28;43.73;99534.25;4884353;28;100359;-61
2020/12/27 04:29:04;;;;;;;0.43;0.30;;;12.00;92.20;;;12.23;43.11;99520.47;4887748;28;112061;-59
2020/12/27 04:31:30;;;;;;;0.50;0.50;;;11.80;91.20;;;12.06;46.06;99519.69;4872538;28;99115;-58
2020/12/27 04:33:57;;;;;;;0.43;0.30;;;11.60;92.90;;;12.08;44.42;99517.81;4878602;28;97694;-57
2020/12/27 04:36:23;;;;;;;0.30;0.30;;;11.60;92.50;;;11.97;47.95;99498.25;4856838;28;98029;-57
2020/12/27 04:38:50;;;;;;;0.50;0.30;;;11.40;93.30;;;12.22;45.61;99487.91;4859732;28;97070;-59
2020/12/27 04:41:18;;;;;;;0.97;0.60;;;11.80;93.80;;;12.11;42.24;99480.63;4857094;28;99059;-58
2020/12/27 04:43:46;;;;;;;0.37;0.33;;;11.80;91.70;;;12.14;42.58;99477.78;4874900;28;100159;-59
2020/12/27 04:46:14;;;;;;;0.40;0.40;;;11.80;91.90;;;12.37;42.63;99478.19;4868356;28;98341;-59
2020/12/27 04:48:42;;;;;;;1.67;0.30;;;12.00;92.60;;;12.28;41.75;99460.22;4890847;28;98814;-60
2020/12/27 04:51:11;;;;;;;0.60;0.23;;;12.00;91.20;;;12.34;45.52;99459.88;4871461;28;97476;-59
2020/12/27 04:53:39;;;;;;;0.50;0.37;;;11.90;92.00;;;12.16;44.12;99449.50;4878912;28;97144;-59
2020/12/27 04:56:06;;;;;;;1.00;0.40;;;11.70;91.20;;;12.29;42.14;99440.78;4871716;28;97697;-59
2020/12/27 04:58:33;;;;;;;0.73;0.30;;;11.90;92.10;;;12.34;46.64;99446.66;4883539;28;98177;-59
2020/12/27 05:01:03;;;;;;;0.40;0.30;;;11.80;93.60;;;12.26;44.23;99435.69;4870262;28;100918;-60
2020/12/27 05:03:29;;;;;;;0.27;0.27;;;11.80;92.20;;;12.11;45.24;99432.19;4887967;28;98382;-59
2020/12/27 05:05:57;;;;;;;0.87;0.33;;;11.70;91.80;;;11.91;42.39;99420.19;4888294;28;96942;-60
2020/12/27 05:08:23;;;;;;;0.77;0.40;;;11.50;91.70;;;11.73;44.62;99410.72;4902334;28;97268;-59
2020/12/27 05:10:49;;;;;;;0.30;0.30;;;11.20;91.50;;;12.09;43.86;99413.78;4871699;28;100209;-60
2020/12/27 05:13:16;;;;;;;2.43;0.53;;;11.60;93.20;;;12.04;45.35;99394.72;4882674;28;96940;-59
2020/12/27 05:15:43;;;;;;;0.30;0.20;;;11.60;92.80;;;11.96;43.35;99386.41;4875579;28;97517;-58
2020/12/27 05:18:11;;;;;;;0.40;0.33;;;11.60;93.00;;;12.09;45.96;99382.06;4877018;28;97760;-58
2020/12/27 05:20:41;;;;;;;0.90;0.20;;;11.60;93.00;;;12.16;44.57;99366.69;4873675;28;100831;-60
2020/12/27 05:23:08;;;;;;;0.60;0.30;;;11.70;93.00;;;12.04;46.11;99363.03;4862963;28;98601;-60
2020/12/27 05:25:40;;;;;;;0.50;0.30;;;11.60;93.10;;;11.92;47.45;99363.78;4875280;28;97024;-59
2020/12/27 05:28:11;;;;;;;0.63;0.40;;;11.40;93.20;;;11.83;48.85;99348.47;4875304;28;97083;-60
2020/12/27 05:30:42;;;;;;;1.73;0.60;;;11.20;94.30;;;11.88;48.60;99346.41;4880631;28;103508;-59
2020/12/27 05:33:17;;;;;;;0.80;0.50;;;11.30;94.00;;;11.52;44.51;99347.66;4861960;28;99246;-59
2020/12/27 05:35:44;;;;;;;0.50;0.30;;;11.00;92.10;;;11.92;45.82;99337.34;4884450;28;101484;-59
2020/12/27 05:38:11;;;;;;;1.07;0.40;;;11.40;93.80;;;11.87;43.07;99335.00;4876957;28;110544;-59
2020/12/27 05:40:41;;;;;;;0.23;0.20;;;11.50;92.50;;;11.70;49.09;99327.19;4894480;28;98568;-59
2020/12/27 05:43:24;;;;;;;1.30;0.77;;;11.20;94.10;;;12.02;45.82;99325.28;4873845;28;100498;-59
2020/12/27 05:45:52;;;;;;;0.90;0.40;;;11.60;93.30;;;11.70;43.69;99321.91;4903424;28;114656;-61
2020/12/27 05:48:18;;;;;;;1.57;0.70;;;11.30;92.70;;;11.79;43.15;99307.34;4894802;28;97374;-60
2020/12/27 05:50:44;;;;;;;0.87;0.67;;;11.50;92.50;;;11.88;48.43;99304.16;4863388;28;100750;-59
2020/12/27 05:53:22;;;;;;;0.80;0.40;;;11.40;94.30;;;11.72;43.72;99287.50;4891671;28;98421;-59
2020/12/27 05:55:52;;;;;;;2.93;0.70;;;11.30;93.30;;;11.63;43.64;99294.19;4859585;28;97459;-62
2020/12/27 05:58:25;;;;;;;0.57;0.40;;;11.20;93.00;;;11.70;46.14;99284.94;4881675;28;99905;-60
2020/12/27 06:00:56;;;;;;;2.50;1.20;;;11.20;94.80;;;11.32;44.48;99276.75;4872933;28;99248;-60
2020/12/27 06:03:28;;;;;;;2.17;0.80;;;11.00;92.40;;;11.22;43.87;99267.66;4887807;28;100104;-60
2020/12/27 06:05:54;;;;;;;1.77;0.63;;;10.90;93.00;;;11.25;45.72;99263.03;4850798;28;101444;-59
2020/12/27 06:08:29;;;;;;;1.93;0.90;;;10.80;94.30;;;11.50;49.39;99249.22;4892208;28;96759;-59
2020/12/27 06:11:00;;;;;;;2.83;0.90;;;11.00;95.50;;;11.42;44.10;99254.09;4872635;28;98461;-59
2020/12/27 06:13:29;;;;;;;2.40;0.90;;;11.10;92.60;;;11.19;48.80;99236.19;4889315;28;99760;-59
2020/12/27 06:15:59;;;;;;;3.13;1.13;;;10.70;95.20;;;11.06;45.04;99237.88;4893470;28;96944;-59
2020/12/27 06:18:29;;;;;;;1.43;0.60;;;10.70;93.40;;;11.16;49.37;99231.09;4874935;28;97410;-59
2020/12/27 06:21:11;;;;;;;1.50;0.60;;;10.70;95.70;;;11.38;45.23;99207.72;4863252;28;100774;-58
2020/12/27 06:23:38;;;;;;;3.50;1.23;;;11.10;93.30;;;11.10;44.24;99195.34;4875567;28;99278;-58
2020/12/27 06:26:06;;;;;;;2.70;0.90;;;10.90;92.80;;;10.92;47.95;99199.97;4868090;28;98154;-56
2020/12/27 06:28:33;;;;;;;1.33;0.57;;;10.60;94.30;;;11.05;47.40;99181.59;4878018;28;96901;-57
2020/12/27 06:31:08;;;;;;;1.43;0.50;;;10.60;95.70;;;11.06;46.70;99177.19;4861656;28;98800;-57
2020/12/27 06:33:41;;;;;;;1.30;0.50;;;10.70;95.20;;;10.87;45.65;99165.13;4888285;28;97325;-59
2020/12/27 06:36:34;;;;;;;1.40;0.70;;;10.50;94.10;;;10.66;46.42;99169.00;4878683;28;97183;-57
2020/12/27 06:39:00;;;;;;;1.93;0.60;;;10.30;94.50;;;10.46;45.71;99150.91;4883266;28;97054;-59
2020/12/27 06:41:25;;;;;;;1.00;0.70;;;10.10;93.80;;;10.52;45.85;99148.75;4865101;28;99884;-57
2020/12/27 06:43:51;;;;;;;1.30;0.60;;;10.20;94.30;;;10.52;45.02;99124.16;4868700;28;99554;-58
2020/12/27 06:46:28;;;;;;;3.20;0.93;;;10.30;93.40;;;10.56;48.76;99120.41;4878899;28;105539;-58
2020/12/27 06:49:11;;;;;;;1.30;0.50;;;10.20;94.20;;;10.63;46.47;99119.09;4883273;28;97043;-57
2020/12/27 06:51:45;;;;;;;1.40;0.60;;;10.30;94.40;;;10.32;48.53;99117.44;4881121;28;97760;-58
2020/12/27 06:54:12;;;;;;;2.83;0.93;;;10.00;94.30;;;10.45;47.45;99107.03;4895802;28;96842;-59
2020/12/27 06:56:46;;;;;;;2.97;0.90;;;10.10;94.60;;;10.51;50.51;99102.22;4865506;28;97899;-57
2020/12/27 06:59:12;;;;;;;2.60;0.90;;;10.10;96.00;;;10.49;45.92;99103.25;4872557;28;97705;-59
2020/12/27 07:01:38;;;;;;;1.73;0.97;;;10.20;94.30;;;10.30;45.35;99078.00;4869374;28;98979;-59
2020/12/27 07:04:16;;;;;;;2.63;0.80;;;10.00;93.80;;;10.71;45.01;99087.88;4884570;28;100079;-59
2020/12/27 07:06:47;;;;;;;0.50;0.30;;;10.40;94.00;;;10.27;45.77;99079.97;4865677;28;96837;-59
2020/12/27 07:09:26;;;;;;;0.67;0.13;;;10.00;93.90;;;10.05;48.35;99073.28;4867626;28;97685;-59
2020/12/27 07:12:12;;;;;;;1.07;0.57;;;9.80;95.20;;;10.26;48.25;99071.19;4865008;28;100724;-59
2020/12/27 07:14:42;;;;;;;0.43;0.40;;;10.00;95.90;;;10.02;46.90;99062.94;4887391;28;99281;-59
2020/12/27 07:17:10;;;;;;;1.67;0.30;;;9.80;95.10;;;10.00;46.48;99053.44;4868475;28;97107;-59
2020/12/27 07:19:38;;;;;;;0.40;0.30;;;9.80;94.40;;;10.14;46.79;99051.69;4874944;28;97363;-59
2020/12/27 07:22:06;;;;;;;2.97;0.60;;;9.90;94.20;;;10.61;50.18;99044.53;4889356;28;98527;-60
2020/12/27 07:24:37;;;;;;;1.47;0.63;;;10.30;96.20;;;10.41;50.05;99043.09;4883632;28;97197;-58
2020/12/27 07:27:05;;;;;;;0.30;0.23;;;10.10;95.40;;;10.06;49.07;99047.81;4884049;28;96979;-59
2020/12/27 07:29:32;;;;;;;1.03;0.43;;;9.80;94.80;;;10.41;48.64;99028.16;4861941;28;97483;-59
2020/12/27 07:32:00;;;;;;;4.30;0.87;;;10.10;96.20;;;10.18;46.01;99017.25;4889447;28;97779;-60
2020/12/27 07:34:29;;;;;;;0.43;0.20;;;10.00;94.00;;;10.30;46.10;99025.31;4866110;28;100833;-59
2020/12/27 07:37:01;;;;;;;0.93;0.40;;;10.10;94.50;;;10.36;47.34;99014.38;4873111;28;96802;-59
2020/12/27 07:39:49;;;;;;;1.80;0.40;;;10.10;95.30;;;10.27;46.38;98999.16;4861287;28;97302;-59
2020/12/27 07:42:27;;;;;;;0.93;0.50;;;10.10;94.30;;;10.40;50.43;98973.72;4880621;28;105221;-59
2020/12/27 07:44:55;;;;;;;1.07;0.50;;;10.00;95.30;;;10.67;50.57;98981.69;4861874;28;100815;-60
2020/12/27 07:47:21;;;;;;;2.30;0.90;;;10.40;96.00;;;10.43;45.79;98963.00;4892214;28;98031;-59
2020/12/27 07:50:15;;;;;;;2.30;0.77;;;10.20;93.60;;;10.71;45.87;98977.97;4865595;28;96946;-60
2020/12/27 07:52:55;;;;;;;2.40;0.87;;;10.40;95.10;;;10.49;45.79;98960.91;4889656;28;103118;-60
2020/12/27 07:55:30;;;;;;;1.40;0.60;;;10.30;93.70;;;10.52;46.60;98934.38;4880438;28;101231;-60
2020/12/27 07:58:04;;;;;;;1.90;0.67;;;10.20;94.60;;;10.51;46.44;98949.34;4882929;28;96804;-57
2020/12/27 08:00:36;;;;;;;2.00;0.70;;;10.20;94.60;;;11.06;48.28;98931.81;4883219;28;98144;-60
2020/12/27 08:03:09;;;;;;;1.60;0.60;;;10.70;96.00;;;11.09;49.41;98919.25;4886652;28;100161;-60
2020/12/27 08:05:36;;;;;;;2.53;1.03;;;10.70;95.40;;;11.40;46.63;98907.53;4882541;28;100208;-59
2020/12/27 08:08:09;;;;;;;1.50;0.83;;;11.10;94.30;;;11.23;45.01;98902.53;4874572;28;97541;-59
2020/12/27 08:10:37;;;;;;;1.97;0.60;;;11.10;93.10;;;11.17;48.30;98895.03;4871504;28;97119;-59
2020/12/27 08:13:06;;;;;;;1.00;0.60;;;10.80;94.80;;;11.29;45.36;98895.06;4868927;28;99064;-59
2020/12/27 08:15:40;;;;;;;1.13;0.60;;;11.00;93.90;;;10.81;45.80;98907.00;4883710;28;99501;-60
2020/12/27 08:18:09;;;;;;;2.17;0.80;;;10.50;93.70;;;10.83;47.33;98894.56;4869234;28;97807;-60
2020/12/27 08:20:46;;;;;;;1.20;0.53;;;10.40;94.60;;;11.10;48.94;98877.88;4882723;28;98012;-60
2020/12/27 08:23:12;;;;;;;2.20;1.07;;;10.70;95.80;;;11.25;46.96;98874.22;4874249;28;100512;-60
2020/12/27 08:25:40;;;;;;;2.27;0.90;;;10.90;95.10;;;11.31;44.67;98881.75;4873353;28;99062;-60
2020/12/27 08:28:11;;;;;;;2.60;1.20;;;11.00;93.60;;;11.15;46.67;98860.81;4889083;28;96957;-59
2020/12/27 08:30:38;;;;;;;1.70;0.60;;;10.90;94.40;;;11.56;49.51;98852.72;4888069;28;97605;-60
2020/12/27 08:33:16;;;;;;;2.20;0.97;;;11.10;96.50;;;11.37;48.51;98849.66;4874053;28;98980;-60
2020/12/27 08:35:49;;;;;;;2.47;0.80;;;11.10;93.10;;;11.37;45.25;98839.09;4866968;28;100418;-60
2020/12/27 08:38:44;;;;;;;1.20;0.70;;;11.10;93.70;;;11.50;46.88;98824.13;4874975;28;96941;-60
2020/12/27 08:41:24;;;;;;;1.50;0.80;;;11.20;93.80;;;11.37;44.97;98812.69;4864655;28;97605;-60
2020/12/27 08:44:29;;;;;;;0.90;0.60;;;11.10;93.80;;;11.51;46.47;98809.97;4891093;28;98683;-60
2020/12/27 08:46:59;;;;;;;1.83;0.80;;;11.10;93.80;;;11.44;48.31;98808.72;4860282;28;103165;-61
2020/12/27 08:49:55;;;;;;;3.63;1.20;;;11.00;94.70;;;11.48;47.21;98791.69;4877392;28;96983;-60
2020/12/27 08:52:24;;;;;;;0.90;0.50;;;11.10;93.10;;;11.55;46.89;98792.13;4880420;28;102303;-61
2020/12/27 08:54:58;;;;;;;1.43;0.53;;;11.20;94.50;;;11.56;44.63;98792.00;4878976;28;99971;-61
2020/12/27 08:57:25;;;;;;;2.13;1.10;;;11.20;93.30;;;11.21;45.52;98777.75;4894827;28;99960;-60
2020/12/27 09:00:08;;;;;;;0.63;0.40;;;10.80;93.70;;;11.13;45.86;98761.56;4879740;28;97741;-61
2020/12/27 09:02:35;;;;;;;0.63;0.50;;;10.70;94.20;;;11.28;46.14;98752.63;4881154;28;96832;-60
2020/12/27 09:05:06;;;;;;;1.07;0.60;;;10.90;94.10;;;11.48;46.04;98752.09;4888574;28;99431;-61
2020/12/27 09:07:51;;;;;;;1.03;0.50;;;11.00;94.80;;;11.63;49.02;98734.34;4885092;28;99971;-60
2020/12/27 09:10:23;;;;;;;1.77;0.90;;;11.10;94.00;;;11.60;46.72;98737.22;4872457;28;99463;-61
2020/12/27 09:13:16;;;;;;;1.70;0.73;;;11.20;94.60;;;11.61;45.20;98705.41;4878654;28;99435;-60
2020/12/27 09:15:49;;;;;;;1.83;0.93;;;11.30;93.10;;;11.38;47.15;98714.09;4883827;28;104888;-61
2020/12/27 09:18:30;;;;;;;1.30;0.70;;;11.00;93.40;;;11.30;44.94;98696.16;4894334;28;100905;-60
2020/12/27 09:21:06;;;;;;;4.10;1.10;;;11.00;93.10;;;11.24;45.05;98706.28;4909202;28;97250;-60
2020/12/27 09:23:32;;;;;;;1.37;0.63;;;10.90;93.20;;;11.49;47.09;98706.28;4860021;28;98646;-61
2020/12/27 09:26:08;;;;;;;1.80;0.80;;;11.10;94.90;;;11.41;44.62;98687.47;4873710;28;99129;-60
2020/12/27 09:28:36;;;;;;;2.00;0.70;;;11.10;92.90;;;11.28;46.85;98686.63;4882080;28;97446;-61
2020/12/27 09:31:11;;;;;;;1.23;0.70;;;10.90;94.60;;;11.16;45.40;98679.59;4889938;28;96873;-61
2020/12/27 09:33:45;;;;;;;2.33;1.07;;;10.80;93.80;;;11.24;45.02;98674.63;4879229;28;97335;-61
2020/12/27 09:36:11;;;;;;;3.47;0.67;;;10.90;93.50;;;11.36;45.84;98672.91;4890144;28;100092;-61
2020/12/27 09:38:43;;;;;;;2.43;0.90;;;11.00;94.00;;;11.32;44.67;98664.38;4880407;28;97671;-61
2020/12/27 09:41:14;;;;;;;2.60;1.00;;;11.00;93.50;;;11.35;44.31;98650.97;4872574;28;98358;-61
2020/12/27 09:44:00;;;;;;;1.30;0.60;;;11.10;92.90;;;11.61;44.56;98647.31;4867557;28;97675;-61
2020/12/27 09:46:45;;;;;;;2.10;0.90;;;11.30;93.80;;;11.54;45.63;98626.72;4888801;28;101668;-61
2020/12/27 09:49:28;;;;;;;1.27;0.40;;;11.20;94.50;;;11.27;44.58;98633.00;4865541;28;97097;-61
2020/12/27 09:52:12;;;;;;;0.90;0.50;;;11.00;93.00;;;11.50;47.71;98617.34;4878242;28;97126;-61
2020/12/27 09:54:43;;;;;;;1.43;0.50;;;11.20;93.70;;;11.41;46.93;98616.19;4868201;28;98760;-61
2020/12/27 09:57:17;;;;;;;1.37;0.80;;;11.10;93.60;;;11.41;43.83;98603.00;4873456;28;101208;-61
2020/12/27 09:59:46;;;;;;;0.63;0.30;;;11.20;92.40;;;11.51;44.27;98601.41;4882827;28;97243;-61
2020/12/27 10:02:12;;;;;;;2.10;0.57;;;11.20;93.00;;;11.40;45.48;98587.28;4871819;28;100171;-61
2020/12/27 10:04:38;;;;;;;1.83;0.53;;;11.00;93.30;;;11.31;48.02;98580.88;4886144;28;97548;-61
2020/12/27 10:07:04;;;;;;;0.90;0.57;;;10.90;94.90;;;11.63;45.03;98553.00;4889944;28;100255;-61
2020/12/27 10:09:33;;;;;;;0.87;0.50;;;11.30;93.90;;;11.81;44.42;98563.19;4870252;28;99104;-61
2020/12/27 10:11:59;;;;;;;0.77;0.40;;;11.50;93.60;;;11.89;44.29;98568.75;4869591;28;97745;-63
2020/12/27 10:14:25;;;;;;;0.40;0.40;;;11.70;92.40;;;12.21;47.29;98551.34;4886565;28;97365;-61
2020/12/27 10:16:52;;;;;;;1.43;0.47;;;11.80;94.30;;;12.04;43.63;98549.13;4864996;28;99423;-61
2020/12/27 10:19:18;;;;;;;0.77;0.40;;;11.80;92.10;;;11.86;43.19;98527.56;4865710;28;97487;-61
2020/12/27 10:21:47;;;;;;;0.90;0.40;;;11.70;92.20;;;11.99;44.74;98535.41;4855502;28;99615;-61
2020/12/27 10:24:14;;;;;;;2.00;0.60;;;11.70;92.90;;;11.94;43.31;98523.50;4868204;28;97689;-61
2020/12/27 10:26:40;;;;;;;0.77;0.40;;;11.60;92.30;;;11.98;44.87;98519.66;4873095;28;105291;-61